Terminal Aerodrome Forecast
Issued by NWS Sioux Falls, SD

Home | Current Version | Previous Version | Text Only | Print | Product List | Glossary Off
Versions: 1 2 3 4 5 6 7 8 9 10 11 12 13

220
FTUS43 KFSD 152320
TAFHON
TAF
KHON 152320Z 1600/1624 34017G26KT 6SM HZ BKN020
     FM160300 34013G21KT P6SM SCT020
     FM160700 33009KT P6SM SCT020
     FM161500 30005KT P6SM SKC
     FM161800 27004KT P6SM SKC
     FM162000 20005KT P6SM FEW150=

USA.gov is the U.S. government's official web portal to all federal, state and local government web resources and services.